sensor_id;sensor_type;location;lat;lon;timestamp;temperature;humidity
26821;DHT22;37186;51.394;5.454;2022-12-15T00:00:15;-1.70;77.20
26821;DHT22;37186;51.394;5.454;2022-12-15T00:03:34;-1.70;77.30
26821;DHT22;37186;51.394;5.454;2022-12-15T00:06:53;-1.70;77.30
26821;DHT22;37186;51.394;5.454;2022-12-15T00:10:12;-1.70;77.20
26821;DHT22;37186;51.394;5.454;2022-12-15T00:13:31;-1.70;77.20
26821;DHT22;37186;51.394;5.454;2022-12-15T00:16:50;-1.70;77.30
26821;DHT22;37186;51.394;5.454;2022-12-15T00:20:10;-1.70;77.30
26821;DHT22;37186;51.394;5.454;2022-12-15T00:23:29;-1.70;77.30
26821;DHT22;37186;51.394;5.454;2022-12-15T00:26:48;-1.70;77.30
26821;DHT22;37186;51.394;5.454;2022-12-15T00:30:08;-1.70;77.30
26821;DHT22;37186;51.394;5.454;2022-12-15T00:33:28;-1.70;77.30
26821;DHT22;37186;51.394;5.454;2022-12-15T00:36:47;-1.70;77.30
26821;DHT22;37186;51.394;5.454;2022-12-15T00:40:06;-1.70;77.30
26821;DHT22;37186;51.394;5.454;2022-12-15T00:43:07;-1.70;77.30
26821;DHT22;37186;51.394;5.454;2022-12-15T00:46:11;-1.70;77.30
26821;DHT22;37186;51.394;5.454;2022-12-15T00:49:31;-1.70;77.20
26821;DHT22;37186;51.394;5.454;2022-12-15T00:52:50;-1.70;77.20
26821;DHT22;37186;51.394;5.454;2022-12-15T00:56:09;-1.80;77.20
26821;DHT22;37186;51.394;5.454;2022-12-15T00:59:28;-1.80;77.20
26821;DHT22;37186;51.394;5.454;2022-12-15T01:02:47;-1.80;77.20
26821;DHT22;37186;51.394;5.454;2022-12-15T01:06:09;-1.80;77.20
26821;DHT22;37186;51.394;5.454;2022-12-15T01:09:28;-1.80;77.20
26821;DHT22;37186;51.394;5.454;2022-12-15T01:12:47;-1.80;77.20
26821;DHT22;37186;51.394;5.454;2022-12-15T01:16:11;-1.90;77.10
26821;DHT22;37186;51.394;5.454;2022-12-15T01:19:30;-1.90;77.10
26821;DHT22;37186;51.394;5.454;2022-12-15T01:22:53;-1.90;77.10
26821;DHT22;37186;51.394;5.454;2022-12-15T01:25:55;-1.90;77.10
26821;DHT22;37186;51.394;5.454;2022-12-15T01:28:55;-1.90;77.20
26821;DHT22;37186;51.394;5.454;2022-12-15T01:31:56;-1.90;77.20
26821;DHT22;37186;51.394;5.454;2022-12-15T01:34:56;-1.90;77.10
26821;DHT22;37186;51.394;5.454;2022-12-15T01:37:57;-1.90;77.10
26821;DHT22;37186;51.394;5.454;2022-12-15T01:41:00;-1.90;77.20
26821;DHT22;37186;51.394;5.454;2022-12-15T01:44:21;-1.90;77.20
26821;DHT22;37186;51.394;5.454;2022-12-15T01:47:24;-1.90;77.20
26821;DHT22;37186;51.394;5.454;2022-12-15T01:50:27;-1.90;77.20
26821;DHT22;37186;51.394;5.454;2022-12-15T01:53:32;-1.90;77.20
26821;DHT22;37186;51.394;5.454;2022-12-15T01:56:38;-1.90;77.20
26821;DHT22;37186;51.394;5.454;2022-12-15T01:59:42;-1.90;77.20
26821;DHT22;37186;51.394;5.454;2022-12-15T02:02:45;-1.90;77.10
26821;DHT22;37186;51.394;5.454;2022-12-15T02:05:46;-1.90;77.20
26821;DHT22;37186;51.394;5.454;2022-12-15T02:08:49;-1.90;77.10
26821;DHT22;37186;51.394;5.454;2022-12-15T02:12:11;-1.90;77.20
26821;DHT22;37186;51.394;5.454;2022-12-15T02:15:36;-1.90;77.20
26821;DHT22;37186;51.394;5.454;2022-12-15T02:18:58;-1.90;77.20
26821;DHT22;37186;51.394;5.454;2022-12-15T02:32:13;-2.00;77.10
26821;DHT22;37186;51.394;5.454;2022-12-15T02:38:45;-2.00;77.20
26821;DHT22;37186;51.394;5.454;2022-12-15T02:41:46;-1.90;77.20
26821;DHT22;37186;51.394;5.454;2022-12-15T02:44:58;-1.90;77.20
26821;DHT22;37186;51.394;5.454;2022-12-15T02:48:24;-1.90;77.20
26821;DHT22;37186;51.394;5.454;2022-12-15T02:51:40;-1.90;77.20
26821;DHT22;37186;51.394;5.454;2022-12-15T03:01:33;-1.90;77.20
26821;DHT22;37186;51.394;5.454;2022-12-15T03:04:35;-1.90;77.20
26821;DHT22;37186;51.394;5.454;2022-12-15T03:07:36;-1.90;77.20
26821;DHT22;37186;51.394;5.454;2022-12-15T03:10:36;-1.90;77.20
26821;DHT22;37186;51.394;5.454;2022-12-15T03:13:37;-1.90;77.20
26821;DHT22;37186;51.394;5.454;2022-12-15T03:16:37;-1.90;77.20
26821;DHT22;37186;51.394;5.454;2022-12-15T03:19:38;-1.80;77.10
26821;DHT22;37186;51.394;5.454;2022-12-15T03:22:39;-1.90;77.10
26821;DHT22;37186;51.394;5.454;2022-12-15T03:25:39;-1.90;77.10
26821;DHT22;37186;51.394;5.454;2022-12-15T03:28:40;-1.90;77.10
26821;DHT22;37186;51.394;5.454;2022-12-15T03:31:40;-1.90;77.10
26821;DHT22;37186;51.394;5.454;2022-12-15T03:34:41;-1.90;77.10
26821;DHT22;37186;51.394;5.454;2022-12-15T03:37:41;-2.00;77.10
26821;DHT22;37186;51.394;5.454;2022-12-15T03:40:42;-1.90;77.10
26821;DHT22;37186;51.394;5.454;2022-12-15T03:43:42;-2.00;77.10
26821;DHT22;37186;51.394;5.454;2022-12-15T03:46:43;-2.00;77.10
26821;DHT22;37186;51.394;5.454;2022-12-15T03:49:44;-2.00;77.10
26821;DHT22;37186;51.394;5.454;2022-12-15T03:52:44;-2.00;77.10
26821;DHT22;37186;51.394;5.454;2022-12-15T03:55:48;-2.00;77.10
26821;DHT22;37186;51.394;5.454;2022-12-15T03:58:49;-2.00;77.00
26821;DHT22;37186;51.394;5.454;2022-12-15T04:01:49;-2.00;77.10
26821;DHT22;37186;51.394;5.454;2022-12-15T04:04:50;-2.00;77.10
26821;DHT22;37186;51.394;5.454;2022-12-15T04:07:52;-2.00;77.10
26821;DHT22;37186;51.394;5.454;2022-12-15T04:10:53;-2.00;77.10
26821;DHT22;37186;51.394;5.454;2022-12-15T04:13:53;-1.90;77.20
26821;DHT22;37186;51.394;5.454;2022-12-15T04:16:54;-2.00;77.20
26821;DHT22;37186;51.394;5.454;2022-12-15T04:19:55;-2.00;77.10
26821;DHT22;37186;51.394;5.454;2022-12-15T04:23:11;-2.00;77.10
26821;DHT22;37186;51.394;5.454;2022-12-15T04:26:11;-2.00;77.10
26821;DHT22;37186;51.394;5.454;2022-12-15T04:29:30;-2.00;77.10
26821;DHT22;37186;51.394;5.454;2022-12-15T04:32:49;-2.00;77.10
26821;DHT22;37186;51.394;5.454;2022-12-15T04:36:10;-2.00;77.20
26821;DHT22;37186;51.394;5.454;2022-12-15T04:39:30;-2.00;77.10
26821;DHT22;37186;51.394;5.454;2022-12-15T04:42:49;-2.00;77.10
26821;DHT22;37186;51.394;5.454;2022-12-15T04:46:08;-2.00;77.10
26821;DHT22;37186;51.394;5.454;2022-12-15T04:49:27;-2.00;77.20
26821;DHT22;37186;51.394;5.454;2022-12-15T04:52:46;-2.00;77.10
26821;DHT22;37186;51.394;5.454;2022-12-15T04:56:13;-2.00;77.10
26821;DHT22;37186;51.394;5.454;2022-12-15T04:59:32;-2.00;77.10
26821;DHT22;37186;51.394;5.454;2022-12-15T05:02:51;-2.10;77.10
26821;DHT22;37186;51.394;5.454;2022-12-15T05:06:10;-2.10;77.10
26821;DHT22;37186;51.394;5.454;2022-12-15T05:09:29;-2.00;77.10
26821;DHT22;37186;51.394;5.454;2022-12-15T05:12:48;-2.00;77.20
26821;DHT22;37186;51.394;5.454;2022-12-15T05:16:07;-2.10;77.10
26821;DHT22;37186;51.394;5.454;2022-12-15T05:19:26;-2.00;77.10
26821;DHT22;37186;51.394;5.454;2022-12-15T05:22:50;-2.10;77.10
26821;DHT22;37186;51.394;5.454;2022-12-15T05:26:10;-2.10;77.10
26821;DHT22;37186;51.394;5.454;2022-12-15T05:29:29;-2.10;77.10
26821;DHT22;37186;51.394;5.454;2022-12-15T05:32:48;-2.10;77.00
26821;DHT22;37186;51.394;5.454;2022-12-15T05:35:48;-2.10;77.00
26821;DHT22;37186;51.394;5.454;2022-12-15T05:38:50;-2.10;77.00
26821;DHT22;37186;51.394;5.454;2022-12-15T05:41:51;-2.10;77.00
26821;DHT22;37186;51.394;5.454;2022-12-15T05:44:52;-2.10;77.10
26821;DHT22;37186;51.394;5.454;2022-12-15T05:47:53;-2.10;77.10
26821;DHT22;37186;51.394;5.454;2022-12-15T05:50:54;-2.10;77.10
26821;DHT22;37186;51.394;5.454;2022-12-15T05:53:55;-2.10;77.00
26821;DHT22;37186;51.394;5.454;2022-12-15T05:56:55;-2.10;77.10
26821;DHT22;37186;51.394;5.454;2022-12-15T05:59:56;-2.10;77.00
26821;DHT22;37186;51.394;5.454;2022-12-15T06:02:57;-2.10;77.10
26821;DHT22;37186;51.394;5.454;2022-12-15T06:05:58;-2.10;77.10
26821;DHT22;37186;51.394;5.454;2022-12-15T06:08:59;-2.10;77.00
26821;DHT22;37186;51.394;5.454;2022-12-15T06:12:00;-2.10;77.00
26821;DHT22;37186;51.394;5.454;2022-12-15T06:15:00;-2.10;77.80
26821;DHT22;37186;51.394;5.454;2022-12-15T06:18:01;-2.20;77.00
26821;DHT22;37186;51.394;5.454;2022-12-15T06:21:08;-2.20;76.90
26821;DHT22;37186;51.394;5.454;2022-12-15T06:24:09;-2.10;77.10
26821;DHT22;37186;51.394;5.454;2022-12-15T06:27:09;-2.20;77.00
26821;DHT22;37186;51.394;5.454;2022-12-15T06:30:10;-2.20;77.00
26821;DHT22;37186;51.394;5.454;2022-12-15T06:33:11;-2.20;77.00
26821;DHT22;37186;51.394;5.454;2022-12-15T06:36:14;-2.20;77.00
26821;DHT22;37186;51.394;5.454;2022-12-15T06:39:15;-2.20;77.00
26821;DHT22;37186;51.394;5.454;2022-12-15T06:42:16;-2.20;76.90
26821;DHT22;37186;51.394;5.454;2022-12-15T06:45:16;-2.20;76.90
26821;DHT22;37186;51.394;5.454;2022-12-15T06:48:18;-2.20;77.00
26821;DHT22;37186;51.394;5.454;2022-12-15T06:51:19;-2.20;77.00
26821;DHT22;37186;51.394;5.454;2022-12-15T06:54:19;-2.20;77.00
26821;DHT22;37186;51.394;5.454;2022-12-15T06:57:20;-2.20;77.00
26821;DHT22;37186;51.394;5.454;2022-12-15T07:00:20;-2.20;77.00
26821;DHT22;37186;51.394;5.454;2022-12-15T07:03:21;-2.40;76.90
26821;DHT22;37186;51.394;5.454;2022-12-15T07:06:22;-2.20;77.00
26821;DHT22;37186;51.394;5.454;2022-12-15T07:09:23;-2.20;77.00
26821;DHT22;37186;51.394;5.454;2022-12-15T07:12:25;-2.30;77.00
26821;DHT22;37186;51.394;5.454;2022-12-15T07:15:26;-2.20;77.00
26821;DHT22;37186;51.394;5.454;2022-12-15T07:18:27;-2.30;77.00
26821;DHT22;37186;51.394;5.454;2022-12-15T07:21:28;-2.30;77.00
26821;DHT22;37186;51.394;5.454;2022-12-15T07:24:29;-2.30;77.00
26821;DHT22;37186;51.394;5.454;2022-12-15T07:27:29;-2.20;77.00
26821;DHT22;37186;51.394;5.454;2022-12-15T07:30:30;-2.30;77.00
26821;DHT22;37186;51.394;5.454;2022-12-15T07:33:31;-2.30;76.90
26821;DHT22;37186;51.394;5.454;2022-12-15T07:36:33;-2.30;76.90
26821;DHT22;37186;51.394;5.454;2022-12-15T07:39:34;-2.30;76.90
26821;DHT22;37186;51.394;5.454;2022-12-15T07:42:34;-2.30;77.00
26821;DHT22;37186;51.394;5.454;2022-12-15T07:45:35;-2.30;76.90
26821;DHT22;37186;51.394;5.454;2022-12-15T07:48:35;-2.30;77.00
26821;DHT22;37186;51.394;5.454;2022-12-15T07:51:36;-2.30;77.00
26821;DHT22;37186;51.394;5.454;2022-12-15T07:54:36;-2.30;76.90
26821;DHT22;37186;51.394;5.454;2022-12-15T07:57:37;-2.30;77.00
26821;DHT22;37186;51.394;5.454;2022-12-15T08:00:38;-2.30;77.00
26821;DHT22;37186;51.394;5.454;2022-12-15T08:03:39;-2.30;77.00
26821;DHT22;37186;51.394;5.454;2022-12-15T08:06:40;-2.30;77.00
26821;DHT22;37186;51.394;5.454;2022-12-15T08:09:40;-2.30;77.00
26821;DHT22;37186;51.394;5.454;2022-12-15T08:12:41;-2.30;77.00
26821;DHT22;37186;51.394;5.454;2022-12-15T08:15:41;-2.30;77.00
26821;DHT22;37186;51.394;5.454;2022-12-15T08:18:42;-2.30;77.00
26821;DHT22;37186;51.394;5.454;2022-12-15T08:21:44;-2.30;77.00
26821;DHT22;37186;51.394;5.454;2022-12-15T08:24:44;-2.30;77.00
26821;DHT22;37186;51.394;5.454;2022-12-15T08:27:50;-2.30;77.00
26821;DHT22;37186;51.394;5.454;2022-12-15T08:30:50;-2.30;77.00
26821;DHT22;37186;51.394;5.454;2022-12-15T08:33:51;-2.30;77.00
26821;DHT22;37186;51.394;5.454;2022-12-15T08:36:53;-2.30;77.10
26821;DHT22;37186;51.394;5.454;2022-12-15T08:39:53;-2.30;77.10
26821;DHT22;37186;51.394;5.454;2022-12-15T08:42:54;-2.30;77.10
26821;DHT22;37186;51.394;5.454;2022-12-15T08:45:54;-2.30;77.10
26821;DHT22;37186;51.394;5.454;2022-12-15T08:48:56;-2.30;77.10
26821;DHT22;37186;51.394;5.454;2022-12-15T08:51:56;-2.30;77.10
26821;DHT22;37186;51.394;5.454;2022-12-15T08:54:57;-2.30;77.10
26821;DHT22;37186;51.394;5.454;2022-12-15T08:57:57;-2.30;77.10
26821;DHT22;37186;51.394;5.454;2022-12-15T09:01:05;-2.30;77.20
26821;DHT22;37186;51.394;5.454;2022-12-15T09:04:06;-2.20;77.20
26821;DHT22;37186;51.394;5.454;2022-12-15T09:07:07;-2.20;77.20
26821;DHT22;37186;51.394;5.454;2022-12-15T09:10:07;-2.20;77.20
26821;DHT22;37186;51.394;5.454;2022-12-15T09:13:08;-2.20;77.30
26821;DHT22;37186;51.394;5.454;2022-12-15T09:16:13;-2.20;77.30
26821;DHT22;37186;51.394;5.454;2022-12-15T09:19:14;-2.20;77.30
26821;DHT22;37186;51.394;5.454;2022-12-15T09:22:15;-2.10;77.40
26821;DHT22;37186;51.394;5.454;2022-12-15T09:25:16;-2.10;77.40
26821;DHT22;37186;51.394;5.454;2022-12-15T09:28:16;-2.10;77.40
26821;DHT22;37186;51.394;5.454;2022-12-15T09:31:20;-2.10;77.40
26821;DHT22;37186;51.394;5.454;2022-12-15T09:34:21;-2.00;77.50
26821;DHT22;37186;51.394;5.454;2022-12-15T09:37:21;-2.00;77.50
26821;DHT22;37186;51.394;5.454;2022-12-15T09:40:22;-2.00;77.50
26821;DHT22;37186;51.394;5.454;2022-12-15T09:43:25;-1.90;77.60
26821;DHT22;37186;51.394;5.454;2022-12-15T09:52:54;-1.90;77.90
26821;DHT22;37186;51.394;5.454;2022-12-15T09:56:02;-1.80;77.70
26821;DHT22;37186;51.394;5.454;2022-12-15T10:09:21;-1.70;77.80
26821;DHT22;37186;51.394;5.454;2022-12-15T10:12:35;-1.60;77.90
26821;DHT22;37186;51.394;5.454;2022-12-15T10:15:45;-1.60;77.90
26821;DHT22;37186;51.394;5.454;2022-12-15T10:22:02;-1.50;78.00
26821;DHT22;37186;51.394;5.454;2022-12-15T10:25:26;-1.50;77.90
26821;DHT22;37186;51.394;5.454;2022-12-15T10:35:37;-1.40;78.00
26821;DHT22;37186;51.394;5.454;2022-12-15T10:38:41;-1.30;78.00
26821;DHT22;37186;51.394;5.454;2022-12-15T10:42:22;-1.30;78.00
26821;DHT22;37186;51.394;5.454;2022-12-15T10:45:37;-1.20;78.10
26821;DHT22;37186;51.394;5.454;2022-12-15T10:48:42;-1.20;78.10
26821;DHT22;37186;51.394;5.454;2022-12-15T10:51:49;-1.20;78.20
26821;DHT22;37186;51.394;5.454;2022-12-15T10:54:53;-1.10;78.20
26821;DHT22;37186;51.394;5.454;2022-12-15T10:57:58;-1.10;78.20
26821;DHT22;37186;51.394;5.454;2022-12-15T11:01:11;-1.10;78.20
26821;DHT22;37186;51.394;5.454;2022-12-15T11:04:32;-1.00;78.30
26821;DHT22;37186;51.394;5.454;2022-12-15T11:07:40;-0.90;78.30
26821;DHT22;37186;51.394;5.454;2022-12-15T11:10:54;-0.90;78.40
26821;DHT22;37186;51.394;5.454;2022-12-15T11:14:20;-0.90;78.40
26821;DHT22;37186;51.394;5.454;2022-12-15T11:17:24;-0.80;78.40
26821;DHT22;37186;51.394;5.454;2022-12-15T11:20:34;-0.80;78.40
26821;DHT22;37186;51.394;5.454;2022-12-15T11:27:14;-0.70;78.60
26821;DHT22;37186;51.394;5.454;2022-12-15T11:30:23;-0.60;78.70
26821;DHT22;37186;51.394;5.454;2022-12-15T11:33:23;-0.60;78.70
26821;DHT22;37186;51.394;5.454;2022-12-15T11:39:59;-0.50;78.90
26821;DHT22;37186;51.394;5.454;2022-12-15T11:43:41;-0.40;78.90
26821;DHT22;37186;51.394;5.454;2022-12-15T11:46:54;-0.40;78.90
26821;DHT22;37186;51.394;5.454;2022-12-15T12:06:31;0.00;79.40
26821;DHT22;37186;51.394;5.454;2022-12-15T12:09:40;0.00;79.40
26821;DHT22;37186;51.394;5.454;2022-12-15T12:13:11;0.10;79.40
26821;DHT22;37186;51.394;5.454;2022-12-15T12:16:30;0.20;79.40
26821;DHT22;37186;51.394;5.454;2022-12-15T12:19:45;0.30;79.60
26821;DHT22;37186;51.394;5.454;2022-12-15T12:23:08;0.30;79.60
26821;DHT22;37186;51.394;5.454;2022-12-15T12:26:28;0.40;79.60
26821;DHT22;37186;51.394;5.454;2022-12-15T12:29:41;0.50;79.80
26821;DHT22;37186;51.394;5.454;2022-12-15T12:36:14;0.60;79.70
26821;DHT22;37186;51.394;5.454;2022-12-15T12:39:19;0.70;79.80
26821;DHT22;37186;51.394;5.454;2022-12-15T12:42:34;0.70;79.90
26821;DHT22;37186;51.394;5.454;2022-12-15T12:45:51;0.80;79.90
26821;DHT22;37186;51.394;5.454;2022-12-15T12:52:23;0.90;80.00
26821;DHT22;37186;51.394;5.454;2022-12-15T12:58:36;1.10;80.00
26821;DHT22;37186;51.394;5.454;2022-12-15T13:01:37;1.10;80.00
26821;DHT22;37186;51.394;5.454;2022-12-15T13:04:40;1.20;80.00
26821;DHT22;37186;51.394;5.454;2022-12-15T13:07:41;1.20;80.10
26821;DHT22;37186;51.394;5.454;2022-12-15T13:10:46;1.30;80.10
26821;DHT22;37186;51.394;5.454;2022-12-15T13:13:47;1.40;80.30
26821;DHT22;37186;51.394;5.454;2022-12-15T13:16:55;1.40;80.30
26821;DHT22;37186;51.394;5.454;2022-12-15T13:26:29;1.60;80.40
26821;DHT22;37186;51.394;5.454;2022-12-15T13:29:30;1.70;80.40
26821;DHT22;37186;51.394;5.454;2022-12-15T13:32:43;1.70;80.60
26821;DHT22;37186;51.394;5.454;2022-12-15T13:35:45;1.80;80.60
26821;DHT22;37186;51.394;5.454;2022-12-15T13:38:53;1.80;80.60
26821;DHT22;37186;51.394;5.454;2022-12-15T13:45:04;1.90;80.70
26821;DHT22;37186;51.394;5.454;2022-12-15T13:51:22;2.00;80.50
26821;DHT22;37186;51.394;5.454;2022-12-15T13:54:30;2.00;80.60
26821;DHT22;37186;51.394;5.454;2022-12-15T13:57:39;2.10;80.60
26821;DHT22;37186;51.394;5.454;2022-12-15T14:00:56;2.10;80.60
26821;DHT22;37186;51.394;5.454;2022-12-15T14:07:00;2.10;80.50
26821;DHT22;37186;51.394;5.454;2022-12-15T14:10:03;2.20;80.40
26821;DHT22;37186;51.394;5.454;2022-12-15T14:13:28;2.20;80.30
26821;DHT22;37186;51.394;5.454;2022-12-15T14:16:31;2.20;80.30
26821;DHT22;37186;51.394;5.454;2022-12-15T14:19:37;2.20;80.30
26821;DHT22;37186;51.394;5.454;2022-12-15T14:22:40;2.20;80.20
26821;DHT22;37186;51.394;5.454;2022-12-15T14:25:54;2.20;80.10
26821;DHT22;37186;51.394;5.454;2022-12-15T14:29:03;2.20;80.10
26821;DHT22;37186;51.394;5.454;2022-12-15T14:32:04;2.20;80.00
26821;DHT22;37186;51.394;5.454;2022-12-15T14:35:07;2.20;80.00
26821;DHT22;37186;51.394;5.454;2022-12-15T14:41:27;2.20;79.90
26821;DHT22;37186;51.394;5.454;2022-12-15T14:47:34;2.20;79.80
26821;DHT22;37186;51.394;5.454;2022-12-15T14:50:35;2.20;79.70
26821;DHT22;37186;51.394;5.454;2022-12-15T14:53:38;2.20;79.70
26821;DHT22;37186;51.394;5.454;2022-12-15T14:56:39;2.20;79.70
26821;DHT22;37186;51.394;5.454;2022-12-15T14:59:43;2.20;79.70
26821;DHT22;37186;51.394;5.454;2022-12-15T15:02:44;2.10;79.60
26821;DHT22;37186;51.394;5.454;2022-12-15T15:05:46;2.10;79.50
26821;DHT22;37186;51.394;5.454;2022-12-15T15:08:49;2.10;79.50
26821;DHT22;37186;51.394;5.454;2022-12-15T15:11:55;2.10;79.50
26821;DHT22;37186;51.394;5.454;2022-12-15T15:15:01;2.10;79.40
26821;DHT22;37186;51.394;5.454;2022-12-15T15:18:02;2.00;79.40
26821;DHT22;37186;51.394;5.454;2022-12-15T15:21:05;2.00;79.40
26821;DHT22;37186;51.394;5.454;2022-12-15T15:27:31;2.00;79.30
26821;DHT22;37186;51.394;5.454;2022-12-15T15:33:50;1.90;79.20
26821;DHT22;37186;51.394;5.454;2022-12-15T15:36:52;1.90;79.20
26821;DHT22;37186;51.394;5.454;2022-12-15T15:39:53;1.90;79.20
26821;DHT22;37186;51.394;5.454;2022-12-15T15:42:54;1.80;79.10
26821;DHT22;37186;51.394;5.454;2022-12-15T15:46:00;1.80;79.10
26821;DHT22;37186;51.394;5.454;2022-12-15T15:49:10;1.80;79.10
26821;DHT22;37186;51.394;5.454;2022-12-15T15:52:13;1.80;79.10
26821;DHT22;37186;51.394;5.454;2022-12-15T15:55:23;1.70;79.10
26821;DHT22;37186;51.394;5.454;2022-12-15T15:58:25;1.70;79.10
26821;DHT22;37186;51.394;5.454;2022-12-15T16:01:25;1.70;79.10
26821;DHT22;37186;51.394;5.454;2022-12-15T16:04:26;1.60;79.00
26821;DHT22;37186;51.394;5.454;2022-12-15T16:07:27;1.60;79.00
26821;DHT22;37186;51.394;5.454;2022-12-15T16:10:28;1.60;79.00
26821;DHT22;37186;51.394;5.454;2022-12-15T16:13:29;1.60;79.00
26821;DHT22;37186;51.394;5.454;2022-12-15T16:16:31;1.50;79.00
26821;DHT22;37186;51.394;5.454;2022-12-15T16:19:31;1.50;79.00
26821;DHT22;37186;51.394;5.454;2022-12-15T16:22:32;1.50;79.80
26821;DHT22;37186;51.394;5.454;2022-12-15T16:25:36;1.40;78.90
26821;DHT22;37186;51.394;5.454;2022-12-15T16:28:37;1.40;78.90
26821;DHT22;37186;51.394;5.454;2022-12-15T16:31:38;1.40;79.00
26821;DHT22;37186;51.394;5.454;2022-12-15T16:34:44;1.40;79.00
26821;DHT22;37186;51.394;5.454;2022-12-15T16:37:45;1.30;78.90
26821;DHT22;37186;51.394;5.454;2022-12-15T16:40:46;1.30;78.90
26821;DHT22;37186;51.394;5.454;2022-12-15T16:43:46;1.30;78.90
26821;DHT22;37186;51.394;5.454;2022-12-15T16:46:47;1.30;79.00
26821;DHT22;37186;51.394;5.454;2022-12-15T16:49:47;1.30;79.00
26821;DHT22;37186;51.394;5.454;2022-12-15T16:52:50;1.20;78.90
26821;DHT22;37186;51.394;5.454;2022-12-15T16:55:56;1.20;78.90
26821;DHT22;37186;51.394;5.454;2022-12-15T16:58:57;1.10;78.90
26821;DHT22;37186;51.394;5.454;2022-12-15T17:01:57;1.10;78.90
26821;DHT22;37186;51.394;5.454;2022-12-15T17:04:58;1.10;78.90
26821;DHT22;37186;51.394;5.454;2022-12-15T17:08:02;1.10;78.90
26821;DHT22;37186;51.394;5.454;2022-12-15T17:11:03;1.10;78.90
26821;DHT22;37186;51.394;5.454;2022-12-15T17:14:04;1.00;78.80
26821;DHT22;37186;51.394;5.454;2022-12-15T17:17:15;1.00;78.90
26821;DHT22;37186;51.394;5.454;2022-12-15T17:20:19;1.00;78.90
26821;DHT22;37186;51.394;5.454;2022-12-15T17:23:21;1.00;78.80
26821;DHT22;37186;51.394;5.454;2022-12-15T17:26:31;0.90;78.80
26821;DHT22;37186;51.394;5.454;2022-12-15T17:29:31;0.90;78.80
26821;DHT22;37186;51.394;5.454;2022-12-15T17:32:32;0.90;78.80
26821;DHT22;37186;51.394;5.454;2022-12-15T17:35:33;0.90;78.80
26821;DHT22;37186;51.394;5.454;2022-12-15T17:38:33;0.90;78.80
26821;DHT22;37186;51.394;5.454;2022-12-15T17:41:34;0.80;78.80
26821;DHT22;37186;51.394;5.454;2022-12-15T17:44:35;0.80;78.80
26821;DHT22;37186;51.394;5.454;2022-12-15T17:47:35;0.80;78.80
26821;DHT22;37186;51.394;5.454;2022-12-15T17:50:36;0.80;78.90
26821;DHT22;37186;51.394;5.454;2022-12-15T17:53:38;0.80;78.90
26821;DHT22;37186;51.394;5.454;2022-12-15T17:56:39;0.80;78.90
26821;DHT22;37186;51.394;5.454;2022-12-15T17:59:40;0.80;79.70
26821;DHT22;37186;51.394;5.454;2022-12-15T18:02:41;0.70;78.80
26821;DHT22;37186;51.394;5.454;2022-12-15T18:05:41;0.70;78.80
26821;DHT22;37186;51.394;5.454;2022-12-15T18:08:42;0.70;78.90
26821;DHT22;37186;51.394;5.454;2022-12-15T18:11:43;0.70;78.80
26821;DHT22;37186;51.394;5.454;2022-12-15T18:14:46;0.70;78.90
26821;DHT22;37186;51.394;5.454;2022-12-15T18:17:47;0.70;78.90
26821;DHT22;37186;51.394;5.454;2022-12-15T18:20:48;0.70;78.90
26821;DHT22;37186;51.394;5.454;2022-12-15T18:23:49;0.70;79.00
26821;DHT22;37186;51.394;5.454;2022-12-15T18:26:51;0.70;79.10
26821;DHT22;37186;51.394;5.454;2022-12-15T18:29:52;0.70;79.00
26821;DHT22;37186;51.394;5.454;2022-12-15T18:32:55;0.70;79.10
26821;DHT22;37186;51.394;5.454;2022-12-15T18:35:55;0.70;79.10
26821;DHT22;37186;51.394;5.454;2022-12-15T18:38:56;0.70;79.10
26821;DHT22;37186;51.394;5.454;2022-12-15T18:41:56;0.70;79.10
26821;DHT22;37186;51.394;5.454;2022-12-15T18:44:57;0.80;79.20
26821;DHT22;37186;51.394;5.454;2022-12-15T18:47:59;0.80;79.20
26821;DHT22;37186;51.394;5.454;2022-12-15T18:51:01;0.80;79.20
26821;DHT22;37186;51.394;5.454;2022-12-15T18:54:02;0.80;79.20
26821;DHT22;37186;51.394;5.454;2022-12-15T18:57:04;0.80;79.10
26821;DHT22;37186;51.394;5.454;2022-12-15T19:03:09;0.80;79.20
26821;DHT22;37186;51.394;5.454;2022-12-15T19:06:29;0.80;79.20
26821;DHT22;37186;51.394;5.454;2022-12-15T19:09:37;0.80;79.10
26821;DHT22;37186;51.394;5.454;2022-12-15T19:12:38;0.80;79.90
26821;DHT22;37186;51.394;5.454;2022-12-15T19:15:38;0.90;79.20
26821;DHT22;37186;51.394;5.454;2022-12-15T19:18:39;0.80;79.10
26821;DHT22;37186;51.394;5.454;2022-12-15T19:21:58;0.90;79.20
26821;DHT22;37186;51.394;5.454;2022-12-15T19:24:59;0.80;79.10
26821;DHT22;37186;51.394;5.454;2022-12-15T19:28:01;0.80;79.10
26821;DHT22;37186;51.394;5.454;2022-12-15T19:31:02;0.80;79.00
26821;DHT22;37186;51.394;5.454;2022-12-15T19:34:02;0.80;79.10
26821;DHT22;37186;51.394;5.454;2022-12-15T19:37:04;0.80;79.00
26821;DHT22;37186;51.394;5.454;2022-12-15T19:40:06;0.80;79.00
26821;DHT22;37186;51.394;5.454;2022-12-15T19:43:10;0.80;79.00
26821;DHT22;37186;51.394;5.454;2022-12-15T19:46:15;0.80;78.90
26821;DHT22;37186;51.394;5.454;2022-12-15T19:49:16;0.80;78.90
26821;DHT22;37186;51.394;5.454;2022-12-15T19:52:17;0.80;78.90
26821;DHT22;37186;51.394;5.454;2022-12-15T19:55:24;0.70;78.90
26821;DHT22;37186;51.394;5.454;2022-12-15T19:58:33;0.70;78.80
26821;DHT22;37186;51.394;5.454;2022-12-15T20:01:33;0.70;78.80
26821;DHT22;37186;51.394;5.454;2022-12-15T20:04:34;0.70;78.80
26821;DHT22;37186;51.394;5.454;2022-12-15T20:07:34;0.70;78.80
26821;DHT22;37186;51.394;5.454;2022-12-15T20:10:35;0.70;78.80
26821;DHT22;37186;51.394;5.454;2022-12-15T20:13:36;0.60;78.80
26821;DHT22;37186;51.394;5.454;2022-12-15T20:16:36;0.60;78.80
26821;DHT22;37186;51.394;5.454;2022-12-15T20:19:37;0.60;78.80
26821;DHT22;37186;51.394;5.454;2022-12-15T20:22:38;0.60;78.70
26821;DHT22;37186;51.394;5.454;2022-12-15T20:25:39;0.60;78.70
26821;DHT22;37186;51.394;5.454;2022-12-15T20:28:40;0.50;78.70
26821;DHT22;37186;51.394;5.454;2022-12-15T20:31:40;0.50;78.70
26821;DHT22;37186;51.394;5.454;2022-12-15T20:34:41;0.50;78.70
26821;DHT22;37186;51.394;5.454;2022-12-15T20:37:42;0.50;78.70
26821;DHT22;37186;51.394;5.454;2022-12-15T20:40:42;0.40;78.60
26821;DHT22;37186;51.394;5.454;2022-12-15T20:43:43;0.40;78.60
26821;DHT22;37186;51.394;5.454;2022-12-15T20:46:45;0.40;78.60
26821;DHT22;37186;51.394;5.454;2022-12-15T20:49:45;0.40;78.60
26821;DHT22;37186;51.394;5.454;2022-12-15T20:52:47;0.40;78.60
26821;DHT22;37186;51.394;5.454;2022-12-15T20:55:49;0.30;78.60
26821;DHT22;37186;51.394;5.454;2022-12-15T20:58:51;0.30;78.60
26821;DHT22;37186;51.394;5.454;2022-12-15T21:01:52;0.30;78.60
26821;DHT22;37186;51.394;5.454;2022-12-15T21:04:52;0.30;78.60
26821;DHT22;37186;51.394;5.454;2022-12-15T21:07:54;0.20;78.50
26821;DHT22;37186;51.394;5.454;2022-12-15T21:10:58;0.30;78.60
26821;DHT22;37186;51.394;5.454;2022-12-15T21:13:59;0.20;78.50
26821;DHT22;37186;51.394;5.454;2022-12-15T21:17:03;0.20;78.50
26821;DHT22;37186;51.394;5.454;2022-12-15T21:20:04;0.20;78.50
26821;DHT22;37186;51.394;5.454;2022-12-15T21:23:07;0.10;78.40
26821;DHT22;37186;51.394;5.454;2022-12-15T21:26:10;0.10;78.50
26821;DHT22;37186;51.394;5.454;2022-12-15T21:29:20;0.10;78.50
26821;DHT22;37186;51.394;5.454;2022-12-15T21:32:21;0.10;78.40